Time;durP1;ratioP1;P1;durP2;ratioP2;P2;SDS_P1;SDS_P2;PMS_P1;PMS_P2;Temp;Humidity;BMP_temperature;BMP_pressure;BME280_temperature;BME280_humidity;BME280_pressure;Samples;Min_cycle;Max_cycle;Signal;HPM_P1;HPM_P2
2021/08/29 00:01:20;;;;;;;7.00;3.50;;;;;;;19.15;64.53;100186.48;126371;1099;104255;-78
2021/08/29 00:03:51;;;;;;;5.93;3.50;;;;;;;19.13;65.50;100180.30;126319;1097;104146;-78
2021/08/29 00:06:21;;;;;;;6.07;3.27;;;;;;;19.11;65.73;100182.95;126287;1099;104239;-80
2021/08/29 00:08:53;;;;;;;11.47;3.70;;;;;;;19.10;65.31;100177.65;126284;1099;104166;-79
2021/08/29 00:11:29;;;;;;;4.80;3.00;;;;;;;19.12;65.61;100181.17;126269;1099;104191;-79
2021/08/29 00:14:03;;;;;;;6.13;3.03;;;;;;;19.14;65.58;100187.39;126246;1099;104351;-79
2021/08/29 00:16:37;;;;;;;4.47;3.10;;;;;;;19.13;65.22;100186.48;126307;1099;104136;-79
2021/08/29 00:19:11;;;;;;;5.75;3.25;;;;;;;19.13;65.21;100180.30;126239;1099;104285;-78
2021/08/29 00:21:42;;;;;;;6.57;3.00;;;;;;;19.12;65.16;100181.17;126382;1099;104194;-79
2021/08/29 00:24:16;;;;;;;6.20;3.05;;;;;;;19.11;65.41;100176.77;126265;1099;104136;-79
2021/08/29 00:26:49;;;;;;;6.30;3.53;;;;;;;19.08;65.71;100168.80;126305;1099;104395;-79
2021/08/29 00:29:20;;;;;;;5.17;3.03;;;;;;;19.04;65.57;100171.48;126238;1099;104293;-79
2021/08/29 00:31:51;;;;;;;6.07;3.53;;;;;;;19.02;65.56;100165.26;126296;1099;104284;-78
2021/08/29 00:34:26;;;;;;;7.50;3.20;;;;;;;19.03;65.77;100167.04;126343;1097;104243;-78
2021/08/29 00:36:57;;;;;;;8.20;3.13;;;;;;;19.08;66.28;100161.70;126378;1098;104206;-79
2021/08/29 00:39:35;;;;;;;6.47;3.20;;;;;;;19.11;65.97;100161.69;126263;1098;104137;-80
2021/08/29 00:42:10;;;;;;;8.43;3.50;;;;;;;19.15;66.01;100157.23;126361;1099;104406;-79
2021/08/29 00:44:43;;;;;;;6.07;2.83;;;;;;;19.15;65.86;100151.91;126384;1098;104168;-80
2021/08/29 00:47:19;;;;;;;6.43;2.80;;;;;;;19.15;65.75;100154.56;126261;1099;104137;-79
2021/08/29 00:49:52;;;;;;;6.10;2.90;;;;;;;19.14;65.94;100153.70;126308;1098;104166;-79
2021/08/29 00:52:25;;;;;;;7.60;3.20;;;;;;;19.11;65.74;100156.37;126202;1099;104357;-79
2021/08/29 00:55:03;;;;;;;5.73;3.10;;;;;;;19.10;65.71;100151.93;126202;1098;104900;-78
2021/08/29 00:57:46;;;;;;;7.90;3.70;;;;;;;19.09;65.81;100147.52;126197;1099;104315;-79
2021/08/29 01:00:21;;;;;;;9.57;3.93;;;;;;;19.10;65.57;100146.61;126089;1099;104271;-79
2021/08/29 01:03:01;;;;;;;6.70;3.50;;;;;;;19.11;65.92;100140.41;126204;1099;104242;-79
2021/08/29 01:05:42;;;;;;;6.00;3.77;;;;;;;19.09;65.55;100138.64;126225;1099;104149;-79
2021/08/29 01:08:33;;;;;;;6.80;3.42;;;;;;;19.03;66.18;100131.59;126204;1099;102862;-79
2021/08/29 01:11:10;;;;;;;8.87;3.57;;;;;;;18.98;66.11;100123.64;126239;1099;110806;-79
2021/08/29 01:13:46;;;;;;;6.93;3.43;;;;;;;18.93;66.00;100117.47;126216;1099;104190;-79
2021/08/29 01:16:24;;;;;;;9.90;3.50;;;;;;;18.89;65.73;100107.73;125411;1099;104297;-78
2021/08/29 01:19:06;;;;;;;8.47;3.40;;;;;;;18.85;65.83;100109.53;126144;1099;104668;-78
2021/08/29 01:21:41;;;;;;;6.40;3.40;;;;;;;18.82;66.27;100105.95;126239;1099;104583;-78
2021/08/29 01:24:20;;;;;;;6.77;3.33;;;;;;;18.81;66.20;100104.20;125720;1099;104238;-79
2021/08/29 01:27:06;;;;;;;9.47;3.80;;;;;;;18.80;65.88;100103.30;126346;1097;104585;-80
2021/08/29 01:29:40;;;;;;;8.93;3.60;;;;;;;18.80;66.12;100099.77;126322;1099;104165;-80
2021/08/29 01:32:19;;;;;;;8.90;3.63;;;;;;;18.79;66.54;100093.58;126306;1099;104248;-78
2021/08/29 01:34:59;;;;;;;9.80;4.00;;;;;;;18.78;66.41;100090.92;126288;1099;104236;-79
2021/08/29 01:37:37;;;;;;;6.77;3.63;;;;;;;18.75;66.19;100091.81;126321;1098;104223;-79
2021/08/29 01:40:16;;;;;;;7.80;3.73;;;;;;;18.72;66.26;100085.63;126277;1099;104169;-80
2021/08/29 01:42:49;;;;;;;6.40;3.50;;;;;;;18.69;66.29;100084.73;126347;1099;104313;-79
2021/08/29 01:45:25;;;;;;;9.83;3.97;;;;;;;18.71;66.61;100099.80;126277;1099;104284;-79
2021/08/29 01:48:00;;;;;;;5.93;3.33;;;;;;;18.71;67.05;100092.70;126285;1099;104127;-78
2021/08/29 01:50:43;;;;;;;6.80;3.67;;;;;;;18.75;66.65;100091.81;126304;1098;104198;-79
2021/08/29 01:53:29;;;;;;;8.50;3.55;;;;;;;18.73;66.53;100090.04;126279;1099;104194;-80
2021/08/29 01:56:17;;;;;;;10.30;4.00;;;;;;;18.72;66.78;100094.48;126337;1099;104365;-78
2021/08/29 01:58:54;;;;;;;7.37;3.83;;;;;;;18.72;66.73;100091.82;126190;1099;104146;-78
2021/08/29 02:01:28;;;;;;;7.30;3.70;;;;;;;18.69;66.78;100103.34;126208;1099;104171;-79
2021/08/29 02:04:05;;;;;;;6.90;3.80;;;;;;;18.68;67.05;100098.94;126193;1099;104153;-79
2021/08/29 02:06:43;;;;;;;7.13;3.30;;;;;;;18.71;66.96;100099.80;126233;1099;104370;-77
2021/08/29 02:09:18;;;;;;;8.00;3.67;;;;;;;18.71;67.80;100100.67;126238;1099;104299;-79
2021/08/29 02:11:56;;;;;;;8.47;3.97;;;;;;;18.73;67.16;100100.67;125321;1102;104204;-79
2021/08/29 02:14:42;;;;;;;9.17;3.80;;;;;;;18.73;67.73;100095.35;126214;1099;104290;-78
2021/08/29 02:17:16;;;;;;;7.20;3.77;;;;;;;18.73;67.71;100095.35;126185;1099;104178;-78
2021/08/29 02:19:50;;;;;;;6.58;3.65;;;;;;;18.73;67.34;100092.70;126201;1099;104188;-79
2021/08/29 02:22:25;;;;;;;7.07;3.70;;;;;;;18.72;67.88;100085.63;126244;1099;120164;-78
2021/08/29 02:24:58;;;;;;;8.03;3.90;;;;;;;18.66;67.82;100084.75;125428;1099;104371;-79
2021/08/29 02:27:30;;;;;;;8.37;3.30;;;;;;;18.64;68.20;100075.91;126212;1099;104376;-78
2021/08/29 02:30:05;;;;;;;8.67;3.50;;;;;;;18.66;67.94;100076.78;126241;1099;104245;-79
2021/08/29 02:32:40;;;;;;;9.77;3.53;;;;;;;18.72;68.33;100075.01;126311;1099;104213;-79
2021/08/29 02:35:15;;;;;;;8.80;3.67;;;;;;;18.73;67.62;100074.09;126284;1099;104123;-78
2021/08/29 02:37:53;;;;;;;6.30;3.33;;;;;;;18.68;67.95;100069.70;126299;1099;104319;-77
2021/08/29 02:40:29;;;;;;;9.17;3.63;;;;;;;18.62;68.02;100067.07;126325;1099;104268;-79
2021/08/29 02:43:04;;;;;;;7.43;3.63;;;;;;;18.55;67.88;100067.10;126346;1099;110872;-78
2021/08/29 02:45:44;;;;;;;8.17;3.30;;;;;;;18.49;67.98;100062.69;126310;1099;104252;-79
2021/08/29 02:48:16;;;;;;;8.70;3.43;;;;;;;18.44;68.18;100056.51;126317;1099;104281;-78
2021/08/29 02:50:49;;;;;;;8.28;3.42;;;;;;;18.45;68.32;100058.25;126186;1099;105076;-79
2021/08/29 02:53:23;;;;;;;8.53;3.70;;;;;;;18.47;68.45;100056.50;126300;1099;104228;-78
2021/08/29 02:55:58;;;;;;;9.90;3.63;;;;;;;18.48;68.12;100042.30;126315;1098;104155;-78
2021/08/29 02:58:34;;;;;;;8.63;3.40;;;;;;;18.42;68.36;100027.30;126368;1098;104144;-79
2021/08/29 03:01:20;;;;;;;9.27;3.97;;;;;;;18.40;68.54;100044.12;126304;1099;104354;-78
2021/08/29 03:04:10;;;;;;;8.63;3.93;;;;;;;18.35;68.46;100048.57;126318;1099;104329;-80
2021/08/29 03:06:43;;;;;;;7.83;3.52;;;;;;;18.32;68.42;100047.70;126371;1099;104216;-78
2021/08/29 03:09:15;;;;;;;7.17;3.45;;;;;;;18.31;68.45;100043.27;126341;1099;104171;-79
2021/08/29 03:11:50;;;;;;;6.07;3.53;;;;;;;18.30;68.61;100041.49;126302;1099;104146;-79
2021/08/29 03:14:40;;;;;;;8.43;3.30;;;;;;;18.29;68.70;100034.44;126341;1097;104163;-79
2021/08/29 03:17:12;;;;;;;11.20;3.50;;;;;;;18.31;68.95;100031.77;126327;1099;104178;-79
2021/08/29 03:19:52;;;;;;;16.80;3.97;;;;;;;18.32;68.66;100030.86;126314;1098;104153;-78
2021/08/29 03:22:30;;;;;;;7.97;3.43;;;;;;;18.31;68.67;100029.12;126188;1099;104219;-78
2021/08/29 03:25:02;;;;;;;10.20;4.10;;;;;;;18.29;68.97;100028.22;126321;1099;104274;-78
2021/08/29 03:27:34;;;;;;;11.17;3.50;;;;;;;18.28;68.96;100024.69;126265;1099;104274;-78
2021/08/29 03:30:07;;;;;;;9.40;3.67;;;;;;;18.27;68.94;100016.73;126330;1097;104261;-78
2021/08/29 03:32:40;;;;;;;9.30;4.10;;;;;;;18.28;69.38;100013.20;125945;1099;104303;-78
2021/08/29 03:35:15;;;;;;;8.77;3.67;;;;;;;18.31;69.21;100008.74;126311;1099;104159;-78
2021/08/29 03:37:52;;;;;;;11.83;3.73;;;;;;;18.33;69.18;100001.64;126326;1099;104316;-79
2021/08/29 03:40:24;;;;;;;8.40;3.80;;;;;;;18.35;68.84;99998.11;126361;1099;104277;-79
2021/08/29 03:42:57;;;;;;;8.03;3.80;;;;;;;18.32;69.01;99989.27;126270;1099;104140;-78
2021/08/29 03:45:29;;;;;;;8.55;3.62;;;;;;;18.32;69.34;99986.62;126321;1099;104152;-80
2021/08/29 03:48:01;;;;;;;5.27;3.47;;;;;;;18.33;69.07;99988.36;126332;1099;104169;-79
2021/08/29 03:50:33;;;;;;;7.63;3.40;;;;;;;18.38;69.61;99984.81;126272;1099;104199;-78
2021/08/29 03:53:05;;;;;;;8.37;3.73;;;;;;;18.43;69.16;99988.33;126260;1099;104147;-78
2021/08/29 03:55:48;;;;;;;8.10;3.83;;;;;;;18.51;69.73;99981.19;126227;1099;104185;-78
2021/08/29 03:58:18;;;;;;;12.10;4.03;;;;;;;18.57;69.63;99990.91;126327;1099;104264;-79
2021/08/29 04:00:52;;;;;;;8.30;3.60;;;;;;;18.58;69.32;99969.66;126287;1099;104179;-80
2021/08/29 04:03:24;;;;;;;7.60;3.73;;;;;;;18.60;69.11;99964.33;126289;1099;104701;-79
2021/08/29 04:06:08;;;;;;;5.20;3.40;;;;;;;18.62;69.26;99952.81;126314;1099;104168;-78
2021/08/29 04:08:39;;;;;;;;;;;;;;;18.63;69.19;99941.27;126337;1099;104204;-79
2021/08/29 04:11:11;;;;;;;6.00;3.47;;;;;;;18.68;69.98;99939.48;126242;1099;104264;-77
2021/08/29 04:13:43;;;;;;;8.20;3.50;;;;;;;18.75;69.51;99939.45;126258;1099;104216;-78
2021/08/29 04:16:20;;;;;;;9.03;3.87;;;;;;;18.78;69.42;99931.45;126340;1097;104185;-78
2021/08/29 04:18:55;;;;;;;8.23;3.50;;;;;;;18.82;69.43;99931.42;126351;1098;104169;-78
2021/08/29 04:21:27;;;;;;;9.07;3.93;;;;;;;18.88;69.50;99927.85;126314;1099;104227;-78
2021/08/29 04:23:59;;;;;;;6.77;3.87;;;;;;;18.91;69.19;99918.98;126276;1098;104305;-78
2021/08/29 04:26:35;;;;;;;7.00;3.63;;;;;;;18.96;69.33;99907.40;126339;1099;104143;-79
2021/08/29 04:29:06;;;;;;;7.05;3.35;;;;;;;19.02;69.62;99907.35;126357;1099;104139;-79
2021/08/29 04:31:40;;;;;;;7.08;3.27;;;;;;;19.07;69.53;99903.78;126355;1099;104156;-78
2021/08/29 04:34:11;;;;;;;;;;;;;;;19.10;69.47;99901.97;126224;1099;104287;-78
2021/08/29 04:36:46;;;;;;;6.37;3.47;;;;;;;19.15;69.62;99905.49;126308;1099;104175;-78
2021/08/29 04:39:27;;;;;;;5.47;3.70;;;;;;;19.18;68.90;99899.24;126348;1099;104185;-78
2021/08/29 04:41:58;;;;;;;6.90;3.50;;;;;;;19.16;68.79;99895.72;126388;1099;104178;-78
2021/08/29 04:44:36;;;;;;;6.20;3.47;;;;;;;19.13;69.41;99893.96;126289;1099;104165;-80
2021/08/29 04:47:07;;;;;;;6.10;3.40;;;;;;;19.13;69.32;99893.96;126317;1099;104156;-78
2021/08/29 04:49:43;;;;;;;9.13;4.33;;;;;;;19.15;69.18;99899.27;126358;1099;104162;-78
2021/08/29 04:52:15;;;;;;;8.00;3.70;;;;;;;19.20;69.16;99903.66;126300;1099;104284;-77
2021/08/29 04:54:46;;;;;;;9.60;3.50;;;;;;;19.24;69.53;99904.50;126300;1099;104232;-78
2021/08/29 04:57:18;;;;;;;12.23;3.90;;;;;;;19.24;69.61;99907.16;126293;1099;104179;-78
2021/08/29 04:59:50;;;;;;;7.90;3.97;;;;;;;19.24;69.28;99916.94;126350;1099;104155;-78
2021/08/29 05:02:21;;;;;;;9.43;3.80;;;;;;;19.19;69.75;99904.55;126278;1099;104153;-78
2021/08/29 05:04:52;;;;;;;10.23;4.10;;;;;;;19.12;69.71;99896.63;126295;1099;104152;-80
2021/08/29 05:07:24;;;;;;;6.67;3.53;;;;;;;19.01;69.41;99897.62;126321;1099;104159;-78
2021/08/29 05:09:54;;;;;;;10.73;3.80;;;;;;;18.97;70.11;99887.03;126331;1099;104249;-79
2021/08/29 05:12:27;;;;;;;8.50;4.17;;;;;;;18.96;69.80;99895.89;126282;1099;104180;-78
2021/08/29 05:14:58;;;;;;;8.40;4.27;;;;;;;18.95;69.87;99894.16;126295;1099;104140;-79
2021/08/29 05:17:30;;;;;;;8.97;3.87;;;;;;;18.97;69.89;99882.59;126341;1097;104316;-78
2021/08/29 05:20:01;;;;;;;9.23;4.17;;;;;;;19.00;69.50;99902.96;126350;1099;104150;-78
2021/08/29 05:22:51;;;;;;;6.03;3.83;;;;;;;19.03;69.90;99898.48;126328;1099;104205;-78
2021/08/29 05:25:41;;;;;;;6.77;4.20;;;;;;;19.07;70.00;99936.56;126297;1099;104367;-79
2021/08/29 05:28:12;;;;;;;7.97;3.63;;;;;;;19.07;70.09;99991.53;126333;1099;104277;-79
2021/08/29 05:30:43;;;;;;;8.63;3.90;;;;;;;19.02;70.63;100013.70;126324;1099;104155;-79
2021/08/29 05:33:14;;;;;;;9.77;4.23;;;;;;;18.97;70.47;100055.40;126336;1098;104262;-79
2021/08/29 05:35:48;;;;;;;8.57;4.20;;;;;;;18.88;70.79;100083.81;126256;1099;104265;-79
2021/08/29 05:38:19;;;;;;;9.63;3.97;;;;;;;18.82;70.82;100092.66;126293;1099;104371;-79
2021/08/29 05:41:08;;;;;;;6.37;3.60;;;;;;;18.76;70.96;100072.33;126379;1099;104156;-79
2021/08/29 05:43:59;;;;;;;14.20;4.73;;;;;;;18.69;71.07;100020.09;126297;1099;104219;-78
2021/08/29 05:46:33;;;;;;;9.47;4.10;;;;;;;18.57;71.05;99986.47;126276;1099;104226;-78
2021/08/29 05:49:04;;;;;;;12.07;4.37;;;;;;;18.43;71.59;99978.61;126339;1099;104201;-78
2021/08/29 05:51:36;;;;;;;13.40;4.45;;;;;;;18.30;71.85;100033.53;126304;1099;104271;-77
2021/08/29 05:54:07;;;;;;;10.30;4.90;;;;;;;18.25;71.76;100045.07;126351;1099;104214;-78
2021/08/29 05:56:39;;;;;;;10.63;4.53;;;;;;;18.17;72.08;100031.81;126237;1099;104152;-77
2021/08/29 05:59:10;;;;;;;11.57;5.07;;;;;;;18.16;72.34;100027.38;126310;1099;104294;-78
2021/08/29 06:01:40;;;;;;;8.00;4.60;;;;;;;18.16;72.67;100035.34;126349;1099;104262;-79
2021/08/29 06:04:11;;;;;;;10.17;4.73;;;;;;;18.15;72.17;100030.91;126309;1099;104229;-78
2021/08/29 06:06:47;;;;;;;11.87;4.53;;;;;;;18.10;72.73;100008.81;126289;1099;104273;-78
2021/08/29 06:09:18;;;;;;;9.27;5.20;;;;;;;18.02;73.16;99981.41;126325;1099;104191;-77
2021/08/29 06:11:49;;;;;;;11.23;5.57;;;;;;;17.90;74.10;99959.34;126361;1098;104226;-77
2021/08/29 06:14:20;;;;;;;10.00;5.93;;;;;;;17.84;73.38;99987.61;126364;1099;104152;-78
2021/08/29 06:16:52;;;;;;;14.73;6.23;;;;;;;17.75;74.90;99970.83;126255;1099;104139;-76
2021/08/29 06:19:30;;;;;;;13.17;5.50;;;;;;;17.66;75.94;99978.80;126375;1099;104181;-76
2021/08/29 06:22:01;;;;;;;11.63;5.27;;;;;;;17.52;77.27;99970.86;126355;1099;104245;-77
2021/08/29 06:24:32;;;;;;;9.43;4.60;;;;;;;17.43;76.01;99962.91;126380;1098;104146;-77
2021/08/29 06:27:19;;;;;;;13.43;6.00;;;;;;;17.37;75.67;99987.69;126266;1099;104217;-77
2021/08/29 06:30:11;;;;;;;12.43;5.53;;;;;;;17.36;75.92;100003.59;126327;1099;104312;-77
2021/08/29 06:32:59;;;;;;;11.93;5.33;;;;;;;17.35;76.20;99996.52;126329;1099;104267;-79
2021/08/29 06:35:31;;;;;;;11.33;5.43;;;;;;;17.32;76.20;99976.17;126285;1098;104216;-77
2021/08/29 06:38:08;;;;;;;9.93;5.47;;;;;;;17.32;76.87;99964.70;126347;1099;104188;-78
2021/08/29 06:40:39;;;;;;;13.57;5.80;;;;;;;17.32;76.31;99954.95;126317;1099;104255;-77
2021/08/29 06:43:11;;;;;;;12.63;5.70;;;;;;;17.35;76.14;99940.83;126192;1099;104354;-77
2021/08/29 06:46:01;;;;;;;13.83;5.97;;;;;;;17.37;78.15;99932.00;126292;1099;104187;-78
2021/08/29 06:48:49;;;;;;;11.63;5.77;;;;;;;17.38;77.69;99932.87;126295;1099;104168;-77
2021/08/29 06:51:38;;;;;;;10.03;5.50;;;;;;;17.42;77.78;99939.91;126345;1097;104165;-77
2021/08/29 06:54:28;;;;;;;11.67;4.93;;;;;;;17.49;77.46;99957.59;126314;1099;104242;-78
2021/08/29 06:57:19;;;;;;;9.67;4.97;;;;;;;17.51;77.92;100000.91;126257;1099;104140;-78
2021/08/29 06:59:50;;;;;;;9.40;5.37;;;;;;;17.53;77.23;100033.64;126347;1097;104150;-78
2021/08/29 07:02:22;;;;;;;9.73;5.20;;;;;;;17.57;77.73;100042.48;126349;1099;104288;-77
2021/08/29 07:04:53;;;;;;;12.10;5.40;;;;;;;17.61;77.10;100045.13;126326;1099;104213;-77
2021/08/29 07:07:25;;;;;;;11.30;5.40;;;;;;;17.66;77.75;100028.34;126285;1099;104226;-78
2021/08/29 07:10:09;;;;;;;8.77;5.07;;;;;;;17.68;77.44;100016.81;126294;1099;104146;-77
2021/08/29 07:13:02;;;;;;;11.17;5.47;;;;;;;17.68;77.34;100005.33;126329;1098;104152;-77
2021/08/29 07:15:36;;;;;;;12.97;5.40;;;;;;;17.69;78.82;100004.45;126334;1099;104160;-78
2021/08/29 07:18:08;;;;;;;15.07;6.37;;;;;;;17.65;78.89;99998.25;126291;1099;104158;-78
2021/08/29 07:20:58;;;;;;;13.97;5.80;;;;;;;17.59;79.11;99988.55;126339;1099;104198;-77
2021/08/29 07:23:50;;;;;;;12.80;5.80;;;;;;;17.54;80.21;99961.12;126318;1099;104136;-77
2021/08/29 07:26:38;;;;;;;13.97;6.60;;;;;;;17.51;79.17;99977.04;126316;1099;104249;-77
2021/08/29 07:29:29;;;;;;;13.70;6.20;;;;;;;17.58;79.14;99970.85;126321;1098;104242;-78
2021/08/29 07:32:21;;;;;;;12.07;6.07;;;;;;;17.67;78.55;99969.97;126391;1099;104280;-78
2021/08/29 07:34:53;;;;;;;12.33;6.20;;;;;;;17.73;78.76;99969.95;126334;1099;104149;-77
2021/08/29 07:37:38;;;;;;;11.43;5.67;;;;;;;17.79;79.50;99982.30;125225;1099;104819;-79
2021/08/29 07:40:10;;;;;;;11.17;5.97;;;;;;;17.81;78.92;100001.78;125296;1099;104150;-77
2021/08/29 07:42:41;;;;;;;12.43;5.70;;;;;;;17.90;79.06;100011.52;125293;1099;104338;-78
2021/08/29 07:45:13;;;;;;;9.27;5.20;;;;;;;17.93;78.65;99993.80;125292;1099;104201;-77
2021/08/29 07:47:44;;;;;;;14.30;6.30;;;;;;;17.93;78.88;99977.87;125224;1099;104405;-77
2021/08/29 07:50:15;;;;;;;11.13;5.50;;;;;;;17.97;78.91;99960.19;125213;1099;104319;-77
2021/08/29 07:52:47;;;;;;;10.50;5.67;;;;;;;18.01;79.04;99946.00;125256;1100;104259;-77
2021/08/29 07:55:30;;;;;;;13.40;6.17;;;;;;;18.03;80.12;99927.41;125410;1099;104252;-77
2021/08/29 07:58:19;;;;;;;10.63;5.57;;;;;;;18.06;79.74;99919.44;126349;1097;104255;-80
2021/08/29 08:00:50;;;;;;;13.67;6.70;;;;;;;18.19;79.56;99928.25;126333;1099;104245;-77
2021/08/29 08:03:39;;;;;;;16.40;6.63;;;;;;;18.40;79.57;99913.97;126335;1099;104770;-78
2021/08/29 08:06:29;;;;;;;13.93;7.00;;;;;;;18.63;79.40;99903.20;126359;1098;104602;-78
2021/08/29 08:09:18;;;;;;;13.37;6.90;;;;;;;18.89;79.45;99894.20;126280;1099;104181;-78
2021/08/29 08:12:09;;;;;;;13.30;6.27;;;;;;;19.09;78.87;99888.69;126350;1099;104205;-78
2021/08/29 08:14:40;;;;;;;13.10;6.50;;;;;;;19.21;79.60;99878.84;126326;1098;104331;-79
2021/08/29 08:17:11;;;;;;;12.97;6.50;;;;;;;19.32;79.24;99880.49;126304;1099;104306;-78
2021/08/29 08:19:46;;;;;;;14.17;7.43;;;;;;;19.38;79.37;99875.11;126362;1099;104172;-79
2021/08/29 08:22:18;;;;;;;13.60;7.43;;;;;;;19.53;79.42;99882.06;126306;1099;104210;-78
2021/08/29 08:25:10;;;;;;;14.50;7.03;;;;;;;19.75;79.59;99872.05;126372;1098;104616;-78
2021/08/29 08:27:59;;;;;;;13.27;6.97;;;;;;;19.95;78.85;99871.84;126273;1099;104239;-78
2021/08/29 08:30:48;;;;;;;13.93;7.07;;;;;;;20.07;79.48;99868.11;126278;1099;104165;-78
2021/08/29 08:33:39;;;;;;;11.60;6.53;;;;;;;20.17;78.99;99866.23;126337;1099;104213;-78
2021/08/29 08:36:28;;;;;;;13.25;6.85;;;;;;;20.31;79.24;99855.38;126322;1099;104162;-77
2021/08/29 08:39:19;;;;;;;14.63;7.30;;;;;;;20.41;79.40;99859.66;126277;1099;104162;-77
2021/08/29 08:42:06;;;;;;;12.40;7.03;;;;;;;20.61;78.70;99859.36;126259;1099;104210;-78
2021/08/29 08:44:48;;;;;;;14.70;7.57;;;;;;;20.79;79.27;99850.23;126275;1099;104207;-77
2021/08/29 08:47:44;;;;;;;15.80;7.37;;;;;;;21.00;79.85;99859.63;126317;1099;104149;-76
2021/08/29 08:50:29;;;;;;;14.00;7.17;;;;;;;21.19;79.50;99862.84;126278;1099;111676;-77
2021/08/29 08:53:23;;;;;;;15.13;7.07;;;;;;;21.29;78.97;99855.58;126358;1097;104249;-77
2021/08/29 08:56:16;;;;;;;10.20;6.33;;;;;;;21.36;79.20;99854.53;126332;1099;104152;-77
2021/08/29 08:59:09;;;;;;;10.27;5.97;;;;;;;21.32;78.33;99860.86;126261;1099;104389;-77
2021/08/29 09:02:00;;;;;;;12.13;6.60;;;;;;;21.33;79.00;99867.94;126350;1099;104194;-78
2021/08/29 09:04:51;;;;;;;16.13;6.40;;;;;;;21.46;79.38;99860.60;126301;1099;104214;-77
2021/08/29 09:07:22;;;;;;;11.73;6.50;;;;;;;21.63;78.59;99862.94;126373;1099;101978;-79
2021/08/29 09:09:53;;;;;;;12.57;6.30;;;;;;;21.75;78.68;99854.69;126301;1099;104771;-76
2021/08/29 09:12:24;;;;;;;11.87;6.30;;;;;;;21.95;79.05;99851.60;126277;1099;104213;-77
2021/08/29 09:14:57;;;;;;;12.53;6.63;;;;;;;22.06;78.55;99856.72;126349;1099;104136;-77
2021/08/29 09:17:33;;;;;;;13.47;7.10;;;;;;;22.19;78.25;99851.97;126327;1097;104583;-77
2021/08/29 09:20:21;;;;;;;13.33;6.80;;;;;;;22.30;77.67;99859.75;126251;1099;104197;-78
2021/08/29 09:22:57;;;;;;;11.65;6.60;;;;;;;22.39;78.18;99856.90;126348;1099;104246;-76
2021/08/29 09:25:43;;;;;;;11.23;6.93;;;;;;;22.53;78.04;99857.48;126291;1099;104323;-77
2021/08/29 09:28:28;;;;;;;11.60;6.63;;;;;;;22.65;78.14;99868.79;126340;1097;104139;-77
2021/08/29 09:31:02;;;;;;;15.18;7.20;;;;;;;22.77;78.46;99863.14;126288;1097;104678;-77
2021/08/29 09:33:35;;;;;;;13.17;6.80;;;;;;;22.98;78.06;99867.06;126342;1099;104143;-78
2021/08/29 09:36:07;;;;;;;;;;;;;;;23.21;76.45;99869.17;126306;1099;104159;-77
2021/08/29 09:38:49;;;;;;;12.37;6.80;;;;;;;23.25;77.15;99870.86;126310;1099;104472;-79
2021/08/29 09:41:39;;;;;;;15.33;7.27;;;;;;;23.34;77.29;99867.04;126388;1099;104185;-78
2021/08/29 09:44:34;;;;;;;12.20;7.30;;;;;;;23.45;77.34;99869.43;126306;1099;104149;-77
2021/08/29 09:47:31;;;;;;;12.63;7.47;;;;;;;23.35;76.22;99858.10;126362;1099;104220;-78
2021/08/29 09:50:22;;;;;;;12.43;7.23;;;;;;;23.24;75.78;99857.52;126286;1099;104131;-78
2021/08/29 09:53:11;;;;;;;12.20;6.60;;;;;;;23.10;76.33;99857.88;126314;1099;104238;-78
2021/08/29 09:55:59;;;;;;;14.07;7.50;;;;;;;23.05;75.41;99846.40;126360;1099;104165;-77
2021/08/29 09:58:52;;;;;;;11.97;7.03;;;;;;;23.07;76.03;99850.77;126336;1099;104136;-78
2021/08/29 10:01:31;;;;;;;13.97;7.20;;;;;;;23.19;76.26;99854.06;126239;1099;104238;-77
2021/08/29 10:04:20;;;;;;;13.87;6.87;;;;;;;23.31;76.55;99848.38;126281;1099;105621;-77
2021/08/29 10:06:52;;;;;;;12.37;7.07;;;;;;;23.39;76.34;99849.08;126310;1099;104165;-77
2021/08/29 10:09:28;;;;;;;12.53;7.40;;;;;;;23.36;75.88;99850.94;126364;1099;104195;-78
2021/08/29 10:12:04;;;;;;;12.93;7.80;;;;;;;23.41;75.96;99841.87;126280;1098;104141;-77
2021/08/29 10:14:37;;;;;;;14.83;7.63;;;;;;;23.44;75.64;99836.44;126351;1099;104246;-79
2021/08/29 10:17:19;;;;;;;12.58;7.37;;;;;;;23.53;75.76;99834.41;126341;1099;104168;-77
2021/08/29 10:20:13;;;;;;;13.50;7.60;;;;;;;23.67;75.61;99832.24;126265;1099;104396;-78
2021/08/29 10:22:59;;;;;;;14.80;8.13;;;;;;;23.89;75.62;99821.80;126348;1099;104248;-78
2021/08/29 10:25:36;;;;;;;16.00;8.17;;;;;;;24.05;75.28;99816.84;126345;1099;104139;-77
2021/08/29 10:28:15;;;;;;;14.87;8.07;;;;;;;24.03;74.33;99807.98;126342;1099;104236;-77
2021/08/29 10:30:56;;;;;;;19.43;9.10;;;;;;;24.09;74.53;99807.80;126234;1099;104185;-77
2021/08/29 10:33:48;;;;;;;17.03;9.17;;;;;;;24.17;74.56;99804.88;126350;1099;104316;-78
2021/08/29 10:36:23;;;;;;;14.77;8.47;;;;;;;24.23;74.34;99808.23;126340;1099;104239;-78
2021/08/29 10:39:11;;;;;;;16.77;8.40;;;;;;;24.17;73.78;99802.20;126351;1097;104246;-77
2021/08/29 10:42:01;;;;;;;14.80;8.70;;;;;;;24.26;73.97;99807.23;126322;1099;104169;-78
2021/08/29 10:44:52;;;;;;;15.10;8.90;;;;;;;24.33;72.71;99799.90;126334;1099;104175;-78
2021/08/29 10:47:46;;;;;;;16.00;8.65;;;;;;;24.41;72.86;99793.34;126295;1099;104326;-77
2021/08/29 10:50:31;;;;;;;16.37;9.23;;;;;;;24.46;72.99;99795.01;126346;1099;104159;-77
2021/08/29 10:53:02;;;;;;;16.00;8.90;;;;;;;24.52;72.12;99789.44;126290;1099;104411;-79
2021/08/29 10:55:33;;;;;;;17.47;9.27;;;;;;;24.63;70.81;99786.44;126346;1098;104162;-77
2021/08/29 10:58:05;;;;;;;14.40;8.47;;;;;;;24.68;70.47;99788.05;126362;1099;104271;-78
2021/08/29 11:00:35;;;;;;;17.57;8.57;;;;;;;24.73;70.31;99794.13;126325;1099;104175;-77
2021/08/29 11:03:30;;;;;;;14.17;8.13;;;;;;;24.86;70.18;99796.39;126309;1097;104712;-77
2021/08/29 11:06:47;;;;;;;14.67;8.30;;;;;;;24.80;67.20;99796.59;126351;1099;104178;-78
2021/08/29 11:09:44;;;;;;;18.80;9.57;;;;;;;24.67;68.21;99797.02;126347;1098;104142;-78
2021/08/29 11:12:32;;;;;;;20.40;9.83;;;;;;;24.50;68.07;99796.67;126288;1099;104179;-78
2021/08/29 11:15:07;;;;;;;16.30;9.53;;;;;;;24.39;68.25;99802.37;126320;1099;104306;-79
2021/08/29 11:17:38;;;;;;;;;;;;;;;24.30;67.58;99798.18;126346;1099;104163;-78
2021/08/29 11:20:17;;;;;;;17.83;9.30;;;;;;;24.30;68.46;99786.59;126350;1099;104224;-79
2021/08/29 11:23:04;;;;;;;16.47;9.13;;;;;;;24.41;68.63;99782.61;126262;1097;104137;-78
2021/08/29 11:25:49;;;;;;;17.53;9.80;;;;;;;24.57;68.66;99784.83;126320;1098;104271;-78
2021/08/29 11:28:39;;;;;;;15.53;9.17;;;;;;;24.75;68.76;99778.84;126301;1097;104316;-79
2021/08/29 11:31:50;;;;;;;15.30;8.73;;;;;;;24.97;68.40;99790.65;126369;1099;104143;-79
2021/08/29 11:34:23;;;;;;;18.35;9.60;;;;;;;25.09;68.43;99785.72;126210;1099;112581;-78
2021/08/29 11:36:56;;;;;;;18.40;10.17;;;;;;;25.17;68.40;99781.89;126349;1099;102760;-78
2021/08/29 11:39:36;;;;;;;15.50;9.57;;;;;;;25.26;68.40;99781.56;126334;1099;104290;-78
2021/08/29 11:42:17;;;;;;;15.65;9.20;;;;;;;25.33;68.21;99777.73;126274;1099;105314;-78
2021/08/29 11:44:49;;;;;;;17.42;9.70;;;;;;;25.35;68.02;99783.91;126332;1099;104563;-79
2021/08/29 11:47:22;;;;;;;17.07;9.60;;;;;;;25.40;67.88;99775.69;126302;1099;104146;-76
2021/08/29 11:50:04;;;;;;;17.30;9.03;;;;;;;25.59;67.88;99773.22;126344;1099;104149;-78
2021/08/29 11:52:39;;;;;;;16.73;9.20;;;;;;;25.75;67.13;99770.81;126281;1099;104312;-79
2021/08/29 11:55:13;;;;;;;16.10;8.87;;;;;;;25.86;67.21;99770.39;126329;1099;104325;-77
2021/08/29 11:57:54;;;;;;;18.03;9.23;;;;;;;25.75;66.40;99771.67;126333;1099;104152;-78
2021/08/29 12:00:28;;;;;;;16.77;9.13;;;;;;;25.79;66.15;99770.63;126337;1099;104152;-78
2021/08/29 12:03:11;;;;;;;15.97;8.60;;;;;;;25.75;65.69;99766.30;126314;1099;104168;-78